Allouez, MI

2:30 PM EDT on May 30, 2015 (GMT -0400)
MesoWest | | Change Station
CLOSE
Current Station
Personal Weather Station
Location: Laurium, MI
Elevation: 1170 ft
Nearby Weather Stations
Active Advisory: Frost Advisory

Elev 1170 ft 47.22 °N, 88.46 °W | Updated 35 minutes ago

Clear
Clear
43 °F
Feels Like 38 °F
N
9
Wind Variable Wind from NNW
Gusts 22.0 mph

Today
High -- | Low -- °F
--% Chance of Precip.
Yesterday
High -- | Low -- °F
Precip. -- in
6:02 AM 9:40 PM
Waxing Gibbous, 91% visible
Pressure 30.30 in
Visibility 10.0 miles
Clouds Clear
Windchill 38 °F
Dew Point 33 °F
Humidity 68%
Rainfall in
Snow Depth Not available.
UV 11 out of 12
Pollen 8.20 out of 12
Air Quality Not available.
Flu Activity Sporadic
METAR KCMX 301753Z AUTO 35010G16KT 10SM CLR 08/01 A3028 RMK AO2 SLP261 T00780006 10078 20061 51021

More Conditions Fewer Conditions

Pressure 30.30 in
Visibility 10.0 miles
Clouds Clear
Windchill 38 °F
Dew Point 33 °F
Humidity 68%
Rainfall in
Snow Depth Not available.
UV 11 out of 12
Pollen 8.20 out of 12
Air Quality Not available.
Flu Activity Sporadic
METAR KCMX 301753Z AUTO 35010G16KT 10SM CLR 08/01 A3028 RMK AO2 SLP261 T00780006 10078 20061 51021

More Conditions Fewer Conditions

10-Day Weather Forecast

Almanac

Astronomy

May. 30, 2015 Rise Set
Actual Time
Civil Twilight
Nautical Twilight
Astronomical Twilight
Moon
Length of Visible Light
Length of Day
Tomorrow will be .
, % of the Moon is Illuminated

Today's Extremes

State Highs State Lows

Community

WunderPhotos

Upload Photos

1,825,610 photos uploaded!

WunderBlogs® & News

Nearby

Air Quality

  Air Quality AQ Index Pollutant
Not available.

Snow Depth

Station Depth Elevation

Earthquake Activity

City Distance Mag. Time & Date
Minimum magnitude displayed is 2.5.

Coastal Water Temperatures

Place Temperature

Stations

Nearby Weather Stations

Station Location Temp. Windchill Dew Point Humidity Wind Precip. Elev Updated Type
                   
Frost Advisory
Statement as of 10:59 AM EDT on May 30, 2015

... Frost advisory remains in effect from midnight EDT /11 PM CDT/
tonight to 8 am EDT /7 am CDT/ Sunday...

Hazardous weather...

* frost is expected to develop after midnight tonight... as
   temperatures fall into the lower to middle 30s.

* The lowest temperatures and heaviest frost is expected inland
   from the Lake Superior and Lake Michigan shorelines.

* Frost is also expected on Sunday night.

Impacts...

* sensitive plants and vegetation could be damaged if not
   protected or brought inside tonight.

Precautionary/preparedness actions...

* a frost advisory means that frost is possible.

* Prepare... plan... and stay informed. Visit www.Weather.Gov/MQT



Kf